sensor_id;sensor_type;location;lat;lon;timestamp;P1;durP1;ratioP1;P2;durP2;ratioP2
18501;SDS011;68437;52.236;5.710;2023-07-20T00:01:07;14.10;;;9.63;;
18501;SDS011;68437;52.236;5.710;2023-07-20T00:03:35;18.48;;;9.07;;
18501;SDS011;68437;52.236;5.710;2023-07-20T00:06:02;17.27;;;8.60;;
18501;SDS011;68437;52.236;5.710;2023-07-20T00:08:30;12.75;;;7.75;;
18501;SDS011;68437;52.236;5.710;2023-07-20T00:10:56;15.18;;;7.60;;
18501;SDS011;68437;52.236;5.710;2023-07-20T00:13:23;12.95;;;7.38;;
18501;SDS011;68437;52.236;5.710;2023-07-20T00:15:50;11.77;;;6.93;;
18501;SDS011;68437;52.236;5.710;2023-07-20T00:18:18;9.95;;;6.07;;
18501;SDS011;68437;52.236;5.710;2023-07-20T00:20:47;12.40;;;6.43;;
18501;SDS011;68437;52.236;5.710;2023-07-20T00:23:16;10.95;;;6.25;;
18501;SDS011;68437;52.236;5.710;2023-07-20T00:25:42;10.13;;;6.25;;
18501;SDS011;68437;52.236;5.710;2023-07-20T00:28:09;9.60;;;6.28;;
18501;SDS011;68437;52.236;5.710;2023-07-20T00:30:37;9.32;;;5.90;;
18501;SDS011;68437;52.236;5.710;2023-07-20T00:33:04;11.07;;;5.75;;
18501;SDS011;68437;52.236;5.710;2023-07-20T00:35:32;8.93;;;4.90;;
18501;SDS011;68437;52.236;5.710;2023-07-20T00:38:01;8.57;;;5.43;;
18501;SDS011;68437;52.236;5.710;2023-07-20T00:40:28;7.63;;;5.35;;
18501;SDS011;68437;52.236;5.710;2023-07-20T00:42:55;7.43;;;4.63;;
18501;SDS011;68437;52.236;5.710;2023-07-20T00:45:22;7.10;;;4.65;;
18501;SDS011;68437;52.236;5.710;2023-07-20T00:47:49;7.68;;;5.03;;
18501;SDS011;68437;52.236;5.710;2023-07-20T00:50:16;7.88;;;4.80;;
18501;SDS011;68437;52.236;5.710;2023-07-20T00:52:43;7.60;;;5.03;;
18501;SDS011;68437;52.236;5.710;2023-07-20T00:55:11;6.35;;;4.28;;
18501;SDS011;68437;52.236;5.710;2023-07-20T00:57:38;7.30;;;4.85;;
18501;SDS011;68437;52.236;5.710;2023-07-20T01:00:06;9.20;;;4.45;;
18501;SDS011;68437;52.236;5.710;2023-07-20T01:02:33;6.50;;;4.40;;
18501;SDS011;68437;52.236;5.710;2023-07-20T01:05:01;6.75;;;3.97;;
18501;SDS011;68437;52.236;5.710;2023-07-20T01:07:31;5.75;;;4.32;;
18501;SDS011;68437;52.236;5.710;2023-07-20T01:10:01;6.53;;;4.43;;
18501;SDS011;68437;52.236;5.710;2023-07-20T01:12:39;7.07;;;4.53;;
18501;SDS011;68437;52.236;5.710;2023-07-20T01:15:08;7.05;;;4.40;;
18501;SDS011;68437;52.236;5.710;2023-07-20T01:17:36;6.78;;;4.28;;
18501;SDS011;68437;52.236;5.710;2023-07-20T01:20:03;6.60;;;3.95;;
18501;SDS011;68437;52.236;5.710;2023-07-20T01:22:42;6.43;;;3.90;;
18501;SDS011;68437;52.236;5.710;2023-07-20T01:25:52;7.70;;;4.15;;
18501;SDS011;68437;52.236;5.710;2023-07-20T01:31:26;4.93;;;3.42;;
18501;SDS011;68437;52.236;5.710;2023-07-20T01:33:56;4.70;;;3.45;;
18501;SDS011;68437;52.236;5.710;2023-07-20T01:36:24;4.72;;;3.70;;
18501;SDS011;68437;52.236;5.710;2023-07-20T01:38:54;5.05;;;4.10;;
18501;SDS011;68437;52.236;5.710;2023-07-20T01:41:22;4.95;;;3.90;;
18501;SDS011;68437;52.236;5.710;2023-07-20T01:43:49;7.18;;;4.93;;
18501;SDS011;68437;52.236;5.710;2023-07-20T01:46:16;7.82;;;5.60;;
18501;SDS011;68437;52.236;5.710;2023-07-20T01:48:44;7.15;;;5.50;;
18501;SDS011;68437;52.236;5.710;2023-07-20T01:51:11;8.43;;;6.00;;
18501;SDS011;68437;52.236;5.710;2023-07-20T01:53:38;7.75;;;5.63;;
18501;SDS011;68437;52.236;5.710;2023-07-20T01:56:05;7.22;;;5.53;;
18501;SDS011;68437;52.236;5.710;2023-07-20T01:58:31;7.70;;;5.28;;
18501;SDS011;68437;52.236;5.710;2023-07-20T02:00:58;9.30;;;5.95;;
18501;SDS011;68437;52.236;5.710;2023-07-20T02:03:28;7.22;;;5.25;;
18501;SDS011;68437;52.236;5.710;2023-07-20T02:05:56;7.68;;;5.53;;
18501;SDS011;68437;52.236;5.710;2023-07-20T02:08:24;6.70;;;5.10;;
18501;SDS011;68437;52.236;5.710;2023-07-20T02:10:51;6.75;;;4.95;;
18501;SDS011;68437;52.236;5.710;2023-07-20T02:13:18;6.55;;;5.00;;
18501;SDS011;68437;52.236;5.710;2023-07-20T02:15:45;8.27;;;5.10;;
18501;SDS011;68437;52.236;5.710;2023-07-20T02:18:14;7.30;;;5.47;;
18501;SDS011;68437;52.236;5.710;2023-07-20T02:20:41;8.10;;;5.05;;
18501;SDS011;68437;52.236;5.710;2023-07-20T02:23:09;6.47;;;4.72;;
18501;SDS011;68437;52.236;5.710;2023-07-20T02:25:36;7.80;;;5.50;;
18501;SDS011;68437;52.236;5.710;2023-07-20T02:28:04;7.80;;;5.30;;
18501;SDS011;68437;52.236;5.710;2023-07-20T02:30:33;7.68;;;4.82;;
18501;SDS011;68437;52.236;5.710;2023-07-20T02:33:00;7.63;;;4.93;;
18501;SDS011;68437;52.236;5.710;2023-07-20T02:35:27;7.18;;;4.80;;
18501;SDS011;68437;52.236;5.710;2023-07-20T02:37:53;6.70;;;4.40;;
18501;SDS011;68437;52.236;5.710;2023-07-20T02:40:22;7.18;;;4.55;;
18501;SDS011;68437;52.236;5.710;2023-07-20T02:42:49;7.38;;;4.47;;
18501;SDS011;68437;52.236;5.710;2023-07-20T02:45:16;6.30;;;4.22;;
18501;SDS011;68437;52.236;5.710;2023-07-20T02:47:43;5.72;;;4.03;;
18501;SDS011;68437;52.236;5.710;2023-07-20T02:50:12;6.07;;;4.18;;
18501;SDS011;68437;52.236;5.710;2023-07-20T02:52:39;7.57;;;4.70;;
18501;SDS011;68437;52.236;5.710;2023-07-20T02:55:06;6.13;;;4.07;;
18501;SDS011;68437;52.236;5.710;2023-07-20T02:57:35;6.63;;;4.30;;
18501;SDS011;68437;52.236;5.710;2023-07-20T03:00:02;8.43;;;4.63;;
18501;SDS011;68437;52.236;5.710;2023-07-20T03:02:31;6.28;;;4.18;;
18501;SDS011;68437;52.236;5.710;2023-07-20T03:04:58;4.88;;;4.05;;
18501;SDS011;68437;52.236;5.710;2023-07-20T03:07:26;6.93;;;4.50;;
18501;SDS011;68437;52.236;5.710;2023-07-20T03:09:54;6.60;;;4.50;;
18501;SDS011;68437;52.236;5.710;2023-07-20T03:12:23;5.95;;;4.10;;
18501;SDS011;68437;52.236;5.710;2023-07-20T03:14:51;6.78;;;4.00;;
18501;SDS011;68437;52.236;5.710;2023-07-20T03:17:19;6.30;;;4.35;;
18501;SDS011;68437;52.236;5.710;2023-07-20T03:19:49;5.97;;;4.20;;
18501;SDS011;68437;52.236;5.710;2023-07-20T03:22:15;6.60;;;4.07;;
18501;SDS011;68437;52.236;5.710;2023-07-20T03:24:42;6.40;;;4.45;;
18501;SDS011;68437;52.236;5.710;2023-07-20T03:27:09;6.03;;;3.90;;
18501;SDS011;68437;52.236;5.710;2023-07-20T03:29:36;4.95;;;3.70;;
18501;SDS011;68437;52.236;5.710;2023-07-20T03:32:05;5.90;;;4.00;;
18501;SDS011;68437;52.236;5.710;2023-07-20T03:34:32;5.78;;;3.90;;
18501;SDS011;68437;52.236;5.710;2023-07-20T03:37:04;5.05;;;3.88;;
18501;SDS011;68437;52.236;5.710;2023-07-20T03:39:31;7.05;;;3.90;;
18501;SDS011;68437;52.236;5.710;2023-07-20T03:41:58;7.43;;;4.03;;
18501;SDS011;68437;52.236;5.710;2023-07-20T03:44:25;7.03;;;3.70;;
18501;SDS011;68437;52.236;5.710;2023-07-20T03:46:52;5.75;;;3.42;;
18501;SDS011;68437;52.236;5.710;2023-07-20T03:49:20;7.18;;;3.60;;
18501;SDS011;68437;52.236;5.710;2023-07-20T03:51:47;7.82;;;3.75;;
18501;SDS011;68437;52.236;5.710;2023-07-20T03:54:14;5.85;;;3.42;;
18501;SDS011;68437;52.236;5.710;2023-07-20T03:56:40;4.25;;;3.15;;
18501;SDS011;68437;52.236;5.710;2023-07-20T03:59:07;4.38;;;3.40;;
18501;SDS011;68437;52.236;5.710;2023-07-20T04:01:34;5.85;;;3.17;;
18501;SDS011;68437;52.236;5.710;2023-07-20T04:04:02;4.95;;;3.67;;
18501;SDS011;68437;52.236;5.710;2023-07-20T04:06:32;5.72;;;3.85;;
18501;SDS011;68437;52.236;5.710;2023-07-20T04:08:59;6.70;;;4.20;;
18501;SDS011;68437;52.236;5.710;2023-07-20T04:11:25;7.18;;;4.40;;
18501;SDS011;68437;52.236;5.710;2023-07-20T04:13:52;6.85;;;4.40;;
18501;SDS011;68437;52.236;5.710;2023-07-20T04:16:21;6.22;;;4.00;;
18501;SDS011;68437;52.236;5.710;2023-07-20T04:18:48;5.32;;;3.97;;
18501;SDS011;68437;52.236;5.710;2023-07-20T04:21:15;5.82;;;4.28;;
18501;SDS011;68437;52.236;5.710;2023-07-20T04:23:43;5.82;;;4.10;;
18501;SDS011;68437;52.236;5.710;2023-07-20T04:26:10;5.72;;;4.10;;
18501;SDS011;68437;52.236;5.710;2023-07-20T04:28:40;5.82;;;4.00;;
18501;SDS011;68437;52.236;5.710;2023-07-20T04:31:11;5.63;;;4.03;;
18501;SDS011;68437;52.236;5.710;2023-07-20T04:33:39;5.43;;;3.90;;
18501;SDS011;68437;52.236;5.710;2023-07-20T04:36:06;5.38;;;3.97;;
18501;SDS011;68437;52.236;5.710;2023-07-20T04:38:34;6.40;;;4.40;;
18501;SDS011;68437;52.236;5.710;2023-07-20T04:41:02;5.72;;;3.50;;
18501;SDS011;68437;52.236;5.710;2023-07-20T04:43:29;4.95;;;3.67;;
18501;SDS011;68437;52.236;5.710;2023-07-20T04:45:56;5.40;;;4.13;;
18501;SDS011;68437;52.236;5.710;2023-07-20T04:48:23;6.28;;;3.83;;
18501;SDS011;68437;52.236;5.710;2023-07-20T04:50:50;5.30;;;3.90;;
18501;SDS011;68437;52.236;5.710;2023-07-20T04:53:17;7.80;;;4.30;;
18501;SDS011;68437;52.236;5.710;2023-07-20T04:55:47;6.30;;;3.92;;
18501;SDS011;68437;52.236;5.710;2023-07-20T04:58:16;7.45;;;4.05;;
18501;SDS011;68437;52.236;5.710;2023-07-20T05:00:44;4.90;;;3.60;;
18501;SDS011;68437;52.236;5.710;2023-07-20T05:03:11;7.43;;;5.18;;
18501;SDS011;68437;52.236;5.710;2023-07-20T05:05:38;7.97;;;5.53;;
18501;SDS011;68437;52.236;5.710;2023-07-20T05:08:05;9.75;;;6.30;;
18501;SDS011;68437;52.236;5.710;2023-07-20T05:10:32;10.88;;;7.22;;
18501;SDS011;68437;52.236;5.710;2023-07-20T05:12:58;11.20;;;6.65;;
18501;SDS011;68437;52.236;5.710;2023-07-20T05:15:27;10.57;;;6.57;;
18501;SDS011;68437;52.236;5.710;2023-07-20T05:17:54;9.85;;;6.75;;
18501;SDS011;68437;52.236;5.710;2023-07-20T05:20:23;16.17;;;8.35;;
18501;SDS011;68437;52.236;5.710;2023-07-20T05:22:49;44.05;;;8.20;;
18501;SDS011;68437;52.236;5.710;2023-07-20T05:25:17;52.67;;;8.05;;
18501;SDS011;68437;52.236;5.710;2023-07-20T05:27:47;39.78;;;8.77;;
18501;SDS011;68437;52.236;5.710;2023-07-20T05:30:15;21.50;;;9.20;;
18501;SDS011;68437;52.236;5.710;2023-07-20T05:32:44;14.88;;;9.77;;
18501;SDS011;68437;52.236;5.710;2023-07-20T05:35:13;13.80;;;8.77;;
18501;SDS011;68437;52.236;5.710;2023-07-20T05:37:42;14.77;;;9.60;;
18501;SDS011;68437;52.236;5.710;2023-07-20T05:40:09;13.77;;;8.82;;
18501;SDS011;68437;52.236;5.710;2023-07-20T05:42:37;16.95;;;10.75;;
18501;SDS011;68437;52.236;5.710;2023-07-20T05:45:04;13.52;;;9.60;;
18501;SDS011;68437;52.236;5.710;2023-07-20T05:47:32;12.38;;;8.85;;
18501;SDS011;68437;52.236;5.710;2023-07-20T05:50:00;12.52;;;8.52;;
18501;SDS011;68437;52.236;5.710;2023-07-20T05:52:28;12.65;;;7.82;;
18501;SDS011;68437;52.236;5.710;2023-07-20T05:54:55;12.32;;;8.00;;
18501;SDS011;68437;52.236;5.710;2023-07-20T05:57:22;12.93;;;7.95;;
18501;SDS011;68437;52.236;5.710;2023-07-20T05:59:49;11.20;;;7.55;;
18501;SDS011;68437;52.236;5.710;2023-07-20T06:02:16;8.88;;;5.85;;
18501;SDS011;68437;52.236;5.710;2023-07-20T06:04:43;7.97;;;4.60;;
18501;SDS011;68437;52.236;5.710;2023-07-20T06:07:12;5.97;;;3.30;;
18501;SDS011;68437;52.236;5.710;2023-07-20T06:09:42;4.85;;;3.20;;
18501;SDS011;68437;52.236;5.710;2023-07-20T06:12:09;4.00;;;2.92;;
18501;SDS011;68437;52.236;5.710;2023-07-20T06:14:42;4.75;;;3.13;;
18501;SDS011;68437;52.236;5.710;2023-07-20T06:17:09;6.63;;;3.75;;
18501;SDS011;68437;52.236;5.710;2023-07-20T06:19:35;4.38;;;3.20;;
18501;SDS011;68437;52.236;5.710;2023-07-20T06:22:02;4.95;;;3.33;;
18501;SDS011;68437;52.236;5.710;2023-07-20T06:24:31;5.93;;;3.00;;
18501;SDS011;68437;52.236;5.710;2023-07-20T06:27:01;4.28;;;2.40;;
18501;SDS011;68437;52.236;5.710;2023-07-20T06:29:28;4.45;;;2.50;;
18501;SDS011;68437;52.236;5.710;2023-07-20T06:31:55;4.57;;;2.97;;
18501;SDS011;68437;52.236;5.710;2023-07-20T06:34:21;4.15;;;2.80;;
18501;SDS011;68437;52.236;5.710;2023-07-20T06:36:48;3.15;;;2.50;;
18501;SDS011;68437;52.236;5.710;2023-07-20T06:39:15;4.53;;;3.00;;
18501;SDS011;68437;52.236;5.710;2023-07-20T06:41:43;4.00;;;2.95;;
18501;SDS011;68437;52.236;5.710;2023-07-20T06:44:10;3.75;;;2.40;;
18501;SDS011;68437;52.236;5.710;2023-07-20T06:46:37;4.47;;;2.30;;
18501;SDS011;68437;52.236;5.710;2023-07-20T06:49:05;3.90;;;2.45;;
18501;SDS011;68437;52.236;5.710;2023-07-20T06:51:33;6.97;;;2.00;;
18501;SDS011;68437;52.236;5.710;2023-07-20T06:54:00;4.93;;;2.13;;
18501;SDS011;68437;52.236;5.710;2023-07-20T06:56:29;4.80;;;1.95;;
18501;SDS011;68437;52.236;5.710;2023-07-20T06:58:57;2.58;;;1.85;;
18501;SDS011;68437;52.236;5.710;2023-07-20T07:01:24;4.50;;;2.10;;
18501;SDS011;68437;52.236;5.710;2023-07-20T07:03:51;2.72;;;1.58;;
18501;SDS011;68437;52.236;5.710;2023-07-20T07:06:18;4.72;;;2.47;;
18501;SDS011;68437;52.236;5.710;2023-07-20T07:08:47;4.72;;;1.88;;
18501;SDS011;68437;52.236;5.710;2023-07-20T07:11:16;3.30;;;1.75;;
18501;SDS011;68437;52.236;5.710;2023-07-20T07:13:43;3.75;;;1.75;;
18501;SDS011;68437;52.236;5.710;2023-07-20T07:16:13;5.13;;;2.25;;
18501;SDS011;68437;52.236;5.710;2023-07-20T07:18:43;3.78;;;1.88;;
18501;SDS011;68437;52.236;5.710;2023-07-20T07:21:10;3.47;;;1.88;;
18501;SDS011;68437;52.236;5.710;2023-07-20T07:23:38;3.53;;;1.67;;
18501;SDS011;68437;52.236;5.710;2023-07-20T07:26:04;3.30;;;2.08;;
18501;SDS011;68437;52.236;5.710;2023-07-20T07:28:32;2.75;;;1.83;;
18501;SDS011;68437;52.236;5.710;2023-07-20T07:30:59;2.53;;;1.88;;
18501;SDS011;68437;52.236;5.710;2023-07-20T07:33:27;3.60;;;1.88;;
18501;SDS011;68437;52.236;5.710;2023-07-20T07:35:54;3.28;;;1.42;;
18501;SDS011;68437;52.236;5.710;2023-07-20T07:38:21;6.40;;;1.50;;
18501;SDS011;68437;52.236;5.710;2023-07-20T07:40:50;4.30;;;1.60;;
18501;SDS011;68437;52.236;5.710;2023-07-20T07:43:17;2.58;;;1.60;;
18501;SDS011;68437;52.236;5.710;2023-07-20T07:45:44;2.75;;;1.60;;
18501;SDS011;68437;52.236;5.710;2023-07-20T07:48:21;2.88;;;1.60;;
18501;SDS011;68437;52.236;5.710;2023-07-20T07:50:51;3.25;;;1.58;;
18501;SDS011;68437;52.236;5.710;2023-07-20T07:53:19;2.58;;;1.60;;
18501;SDS011;68437;52.236;5.710;2023-07-20T07:55:47;4.95;;;1.70;;
18501;SDS011;68437;52.236;5.710;2023-07-20T07:58:14;1.95;;;1.60;;
18501;SDS011;68437;52.236;5.710;2023-07-20T08:00:41;3.60;;;1.50;;
18501;SDS011;68437;52.236;5.710;2023-07-20T08:03:08;4.43;;;1.70;;
18501;SDS011;68437;52.236;5.710;2023-07-20T08:05:35;5.57;;;1.60;;
18501;SDS011;68437;52.236;5.710;2023-07-20T08:08:06;2.38;;;1.45;;
18501;SDS011;68437;52.236;5.710;2023-07-20T08:10:35;2.05;;;1.52;;
18501;SDS011;68437;52.236;5.710;2023-07-20T08:13:02;2.17;;;1.08;;
18501;SDS011;68437;52.236;5.710;2023-07-20T08:15:29;2.85;;;1.17;;
18501;SDS011;68437;52.236;5.710;2023-07-20T08:17:57;2.63;;;1.20;;
18501;SDS011;68437;52.236;5.710;2023-07-20T08:20:24;3.47;;;1.10;;
18501;SDS011;68437;52.236;5.710;2023-07-20T08:22:52;1.58;;;1.00;;
18501;SDS011;68437;52.236;5.710;2023-07-20T08:25:20;2.65;;;1.00;;
18501;SDS011;68437;52.236;5.710;2023-07-20T08:27:48;1.27;;;0.95;;
18501;SDS011;68437;52.236;5.710;2023-07-20T08:30:14;0.98;;;0.88;;
18501;SDS011;68437;52.236;5.710;2023-07-20T08:32:41;1.58;;;1.05;;
18501;SDS011;68437;52.236;5.710;2023-07-20T08:35:08;1.92;;;1.00;;
18501;SDS011;68437;52.236;5.710;2023-07-20T08:37:35;3.08;;;1.00;;
18501;SDS011;68437;52.236;5.710;2023-07-20T08:40:02;1.48;;;1.10;;
18501;SDS011;68437;52.236;5.710;2023-07-20T08:42:35;2.53;;;1.08;;
18501;SDS011;68437;52.236;5.710;2023-07-20T08:45:02;1.55;;;0.95;;
18501;SDS011;68437;52.236;5.710;2023-07-20T08:47:38;1.92;;;0.80;;
18501;SDS011;68437;52.236;5.710;2023-07-20T08:50:08;1.23;;;0.70;;
18501;SDS011;68437;52.236;5.710;2023-07-20T08:52:37;0.80;;;0.70;;
18501;SDS011;68437;52.236;5.710;2023-07-20T08:55:05;1.00;;;0.80;;
18501;SDS011;68437;52.236;5.710;2023-07-20T08:57:32;1.15;;;0.77;;
18501;SDS011;68437;52.236;5.710;2023-07-20T09:00:03;2.13;;;0.70;;
18501;SDS011;68437;52.236;5.710;2023-07-20T09:02:31;3.17;;;0.80;;
18501;SDS011;68437;52.236;5.710;2023-07-20T09:05:06;1.27;;;0.88;;
18501;SDS011;68437;52.236;5.710;2023-07-20T09:07:35;5.05;;;1.20;;
18501;SDS011;68437;52.236;5.710;2023-07-20T09:10:02;1.40;;;0.90;;
18501;SDS011;68437;52.236;5.710;2023-07-20T09:12:31;1.65;;;0.90;;
18501;SDS011;68437;52.236;5.710;2023-07-20T09:15:00;1.05;;;0.70;;
18501;SDS011;68437;52.236;5.710;2023-07-20T09:17:29;3.03;;;1.40;;
18501;SDS011;68437;52.236;5.710;2023-07-20T09:19:56;0.75;;;0.70;;
18501;SDS011;68437;52.236;5.710;2023-07-20T09:22:27;1.60;;;0.80;;
18501;SDS011;68437;52.236;5.710;2023-07-20T09:24:56;3.20;;;0.80;;
18501;SDS011;68437;52.236;5.710;2023-07-20T09:27:34;1.77;;;0.80;;
18501;SDS011;68437;52.236;5.710;2023-07-20T09:30:04;1.25;;;0.80;;
18501;SDS011;68437;52.236;5.710;2023-07-20T09:32:32;1.05;;;0.75;;
18501;SDS011;68437;52.236;5.710;2023-07-20T09:35:05;2.50;;;0.90;;
18501;SDS011;68437;52.236;5.710;2023-07-20T09:37:33;0.80;;;0.80;;
18501;SDS011;68437;52.236;5.710;2023-07-20T09:40:00;1.55;;;1.00;;
18501;SDS011;68437;52.236;5.710;2023-07-20T09:42:27;3.72;;;0.90;;
18501;SDS011;68437;52.236;5.710;2023-07-20T09:44:54;5.20;;;1.13;;
18501;SDS011;68437;52.236;5.710;2023-07-20T09:47:24;1.88;;;1.00;;
18501;SDS011;68437;52.236;5.710;2023-07-20T09:49:57;2.33;;;1.20;;
18501;SDS011;68437;52.236;5.710;2023-07-20T09:52:25;2.13;;;0.90;;
18501;SDS011;68437;52.236;5.710;2023-07-20T09:54:52;1.10;;;1.00;;
18501;SDS011;68437;52.236;5.710;2023-07-20T09:57:21;2.25;;;1.10;;
18501;SDS011;68437;52.236;5.710;2023-07-20T09:59:48;3.17;;;1.00;;
18501;SDS011;68437;52.236;5.710;2023-07-20T10:02:17;1.77;;;0.90;;
18501;SDS011;68437;52.236;5.710;2023-07-20T10:04:50;2.40;;;1.27;;
18501;SDS011;68437;52.236;5.710;2023-07-20T10:07:21;4.85;;;1.48;;
18501;SDS011;68437;52.236;5.710;2023-07-20T10:09:50;3.95;;;1.50;;
18501;SDS011;68437;52.236;5.710;2023-07-20T10:12:19;1.73;;;1.50;;
18501;SDS011;68437;52.236;5.710;2023-07-20T10:14:50;2.40;;;1.20;;
18501;SDS011;68437;52.236;5.710;2023-07-20T10:17:24;1.90;;;1.17;;
18501;SDS011;68437;52.236;5.710;2023-07-20T10:19:55;1.33;;;1.05;;
18501;SDS011;68437;52.236;5.710;2023-07-20T10:22:25;1.70;;;1.00;;
18501;SDS011;68437;52.236;5.710;2023-07-20T10:24:53;5.88;;;1.00;;
18501;SDS011;68437;52.236;5.710;2023-07-20T10:27:23;2.30;;;1.17;;
18501;SDS011;68437;52.236;5.710;2023-07-20T10:29:50;1.20;;;1.10;;
18501;SDS011;68437;52.236;5.710;2023-07-20T10:32:18;4.72;;;1.20;;
18501;SDS011;68437;52.236;5.710;2023-07-20T10:34:50;2.65;;;1.20;;
18501;SDS011;68437;52.236;5.710;2023-07-20T10:40:38;2.00;;;0.90;;
18501;SDS011;68437;52.236;5.710;2023-07-20T10:43:05;2.97;;;0.80;;
18501;SDS011;68437;52.236;5.710;2023-07-20T10:45:34;3.85;;;1.00;;
18501;SDS011;68437;52.236;5.710;2023-07-20T10:48:17;1.02;;;0.70;;
18501;SDS011;68437;52.236;5.710;2023-07-20T10:50:46;2.25;;;0.80;;
18501;SDS011;68437;52.236;5.710;2023-07-20T10:53:35;0.68;;;0.60;;
18501;SDS011;68437;52.236;5.710;2023-07-20T10:56:07;0.80;;;0.65;;
18501;SDS011;68437;52.236;5.710;2023-07-20T10:58:37;1.55;;;0.80;;
18501;SDS011;68437;52.236;5.710;2023-07-20T11:01:04;1.23;;;0.90;;
18501;SDS011;68437;52.236;5.710;2023-07-20T11:03:32;0.95;;;0.70;;
18501;SDS011;68437;52.236;5.710;2023-07-20T11:06:03;2.22;;;0.90;;
18501;SDS011;68437;52.236;5.710;2023-07-20T11:09:04;1.35;;;0.90;;
18501;SDS011;68437;52.236;5.710;2023-07-20T11:11:35;4.07;;;0.80;;
18501;SDS011;68437;52.236;5.710;2023-07-20T11:14:04;2.50;;;0.95;;
18501;SDS011;68437;52.236;5.710;2023-07-20T11:16:36;0.85;;;0.70;;
18501;SDS011;68437;52.236;5.710;2023-07-20T11:19:04;2.28;;;0.80;;
18501;SDS011;68437;52.236;5.710;2023-07-20T11:21:36;0.80;;;0.60;;
18501;SDS011;68437;52.236;5.710;2023-07-20T11:24:05;1.75;;;0.70;;
18501;SDS011;68437;52.236;5.710;2023-07-20T11:26:43;0.60;;;0.60;;
18501;SDS011;68437;52.236;5.710;2023-07-20T11:29:11;1.40;;;0.80;;
18501;SDS011;68437;52.236;5.710;2023-07-20T11:31:39;2.53;;;0.70;;
18501;SDS011;68437;52.236;5.710;2023-07-20T11:34:07;1.85;;;0.77;;
18501;SDS011;68437;52.236;5.710;2023-07-20T11:36:37;1.13;;;0.70;;
18501;SDS011;68437;52.236;5.710;2023-07-20T11:39:06;1.20;;;0.80;;
18501;SDS011;68437;52.236;5.710;2023-07-20T11:41:34;2.53;;;0.90;;
18501;SDS011;68437;52.236;5.710;2023-07-20T11:44:02;3.38;;;0.80;;
18501;SDS011;68437;52.236;5.710;2023-07-20T11:46:32;0.88;;;0.80;;
18501;SDS011;68437;52.236;5.710;2023-07-20T11:49:01;1.25;;;0.80;;
18501;SDS011;68437;52.236;5.710;2023-07-20T11:51:28;3.05;;;1.02;;
18501;SDS011;68437;52.236;5.710;2023-07-20T11:53:55;2.60;;;0.80;;
18501;SDS011;68437;52.236;5.710;2023-07-20T11:56:23;1.88;;;0.88;;
18501;SDS011;68437;52.236;5.710;2023-07-20T11:58:54;2.05;;;0.80;;
18501;SDS011;68437;52.236;5.710;2023-07-20T12:01:22;1.80;;;0.77;;
18501;SDS011;68437;52.236;5.710;2023-07-20T12:03:49;0.93;;;0.70;;
18501;SDS011;68437;52.236;5.710;2023-07-20T12:06:17;2.53;;;0.70;;
18501;SDS011;68437;52.236;5.710;2023-07-20T12:08:44;0.90;;;0.73;;
18501;SDS011;68437;52.236;5.710;2023-07-20T12:11:11;2.72;;;0.70;;
18501;SDS011;68437;52.236;5.710;2023-07-20T12:13:38;2.60;;;0.90;;
18501;SDS011;68437;52.236;5.710;2023-07-20T12:16:11;1.25;;;0.80;;
18501;SDS011;68437;52.236;5.710;2023-07-20T12:18:41;0.70;;;0.60;;
18501;SDS011;68437;52.236;5.710;2023-07-20T12:21:09;1.70;;;0.77;;
18501;SDS011;68437;52.236;5.710;2023-07-20T12:23:39;0.98;;;0.73;;
18501;SDS011;68437;52.236;5.710;2023-07-20T12:26:07;1.00;;;0.80;;
18501;SDS011;68437;52.236;5.710;2023-07-20T12:28:35;1.17;;;0.65;;
18501;SDS011;68437;52.236;5.710;2023-07-20T12:31:06;1.23;;;0.70;;
18501;SDS011;68437;52.236;5.710;2023-07-20T12:33:33;1.02;;;0.77;;
18501;SDS011;68437;52.236;5.710;2023-07-20T12:36:01;2.42;;;0.70;;
18501;SDS011;68437;52.236;5.710;2023-07-20T12:38:28;0.90;;;0.70;;
18501;SDS011;68437;52.236;5.710;2023-07-20T12:41:02;2.55;;;0.90;;
18501;SDS011;68437;52.236;5.710;2023-07-20T12:43:29;1.60;;;0.75;;
18501;SDS011;68437;52.236;5.710;2023-07-20T12:45:57;2.45;;;0.80;;
18501;SDS011;68437;52.236;5.710;2023-07-20T12:48:24;3.10;;;1.10;;
18501;SDS011;68437;52.236;5.710;2023-07-20T12:50:51;2.20;;;1.20;;
18501;SDS011;68437;52.236;5.710;2023-07-20T12:53:20;1.48;;;0.73;;
18501;SDS011;68437;52.236;5.710;2023-07-20T12:55:47;1.83;;;0.90;;
18501;SDS011;68437;52.236;5.710;2023-07-20T12:58:14;3.08;;;1.00;;
18501;SDS011;68437;52.236;5.710;2023-07-20T13:00:41;2.60;;;1.00;;
18501;SDS011;68437;52.236;5.710;2023-07-20T13:03:09;3.55;;;0.75;;
18501;SDS011;68437;52.236;5.710;2023-07-20T13:05:35;0.77;;;0.70;;
18501;SDS011;68437;52.236;5.710;2023-07-20T13:08:02;2.60;;;0.90;;
18501;SDS011;68437;52.236;5.710;2023-07-20T13:10:32;1.40;;;1.00;;
18501;SDS011;68437;52.236;5.710;2023-07-20T13:12:59;1.40;;;0.80;;
18501;SDS011;68437;52.236;5.710;2023-07-20T13:15:29;1.42;;;0.80;;
18501;SDS011;68437;52.236;5.710;2023-07-20T13:17:57;0.77;;;0.70;;
18501;SDS011;68437;52.236;5.710;2023-07-20T13:20:26;1.70;;;0.85;;
18501;SDS011;68437;52.236;5.710;2023-07-20T13:22:55;1.60;;;0.73;;
18501;SDS011;68437;52.236;5.710;2023-07-20T13:25:22;2.40;;;0.80;;
18501;SDS011;68437;52.236;5.710;2023-07-20T13:27:52;3.10;;;0.88;;
18501;SDS011;68437;52.236;5.710;2023-07-20T13:30:19;1.25;;;0.85;;
18501;SDS011;68437;52.236;5.710;2023-07-20T13:32:46;1.17;;;0.70;;
18501;SDS011;68437;52.236;5.710;2023-07-20T13:35:16;1.23;;;0.80;;
18501;SDS011;68437;52.236;5.710;2023-07-20T13:37:43;3.00;;;0.93;;
18501;SDS011;68437;52.236;5.710;2023-07-20T13:40:11;3.58;;;0.80;;
18501;SDS011;68437;52.236;5.710;2023-07-20T13:42:43;0.90;;;0.80;;
18501;SDS011;68437;52.236;5.710;2023-07-20T13:45:11;2.47;;;0.90;;
18501;SDS011;68437;52.236;5.710;2023-07-20T13:47:38;1.48;;;0.85;;
18501;SDS011;68437;52.236;5.710;2023-07-20T13:50:06;1.88;;;0.77;;
18501;SDS011;68437;52.236;5.710;2023-07-20T13:52:33;1.83;;;0.80;;
18501;SDS011;68437;52.236;5.710;2023-07-20T13:55:00;1.30;;;0.70;;
18501;SDS011;68437;52.236;5.710;2023-07-20T13:57:27;0.65;;;0.60;;
18501;SDS011;68437;52.236;5.710;2023-07-20T13:59:54;2.65;;;0.73;;
18501;SDS011;68437;52.236;5.710;2023-07-20T14:02:22;0.98;;;0.80;;
18501;SDS011;68437;52.236;5.710;2023-07-20T14:04:49;1.95;;;0.80;;
18501;SDS011;68437;52.236;5.710;2023-07-20T14:07:16;0.68;;;0.68;;
18501;SDS011;68437;52.236;5.710;2023-07-20T14:09:43;1.08;;;0.80;;
18501;SDS011;68437;52.236;5.710;2023-07-20T14:12:10;1.27;;;0.85;;
18501;SDS011;68437;52.236;5.710;2023-07-20T14:14:39;0.90;;;0.80;;
18501;SDS011;68437;52.236;5.710;2023-07-20T14:17:06;1.35;;;0.82;;
18501;SDS011;68437;52.236;5.710;2023-07-20T14:19:34;2.78;;;0.93;;
18501;SDS011;68437;52.236;5.710;2023-07-20T14:22:03;0.95;;;0.80;;
18501;SDS011;68437;52.236;5.710;2023-07-20T14:24:31;2.38;;;0.90;;
18501;SDS011;68437;52.236;5.710;2023-07-20T14:26:58;0.98;;;0.70;;
18501;SDS011;68437;52.236;5.710;2023-07-20T14:29:25;2.17;;;1.00;;
18501;SDS011;68437;52.236;5.710;2023-07-20T14:31:53;1.67;;;1.10;;
18501;SDS011;68437;52.236;5.710;2023-07-20T14:34:22;2.30;;;1.08;;
18501;SDS011;68437;52.236;5.710;2023-07-20T14:36:50;1.38;;;0.90;;
18501;SDS011;68437;52.236;5.710;2023-07-20T14:39:17;1.90;;;1.05;;
18501;SDS011;68437;52.236;5.710;2023-07-20T14:41:44;2.05;;;1.00;;
18501;SDS011;68437;52.236;5.710;2023-07-20T14:44:11;1.00;;;0.82;;
18501;SDS011;68437;52.236;5.710;2023-07-20T14:46:38;2.50;;;0.98;;
18501;SDS011;68437;52.236;5.710;2023-07-20T14:49:05;1.55;;;1.00;;
18501;SDS011;68437;52.236;5.710;2023-07-20T14:51:32;1.23;;;1.00;;
18501;SDS011;68437;52.236;5.710;2023-07-20T14:54:02;5.53;;;1.30;;
18501;SDS011;68437;52.236;5.710;2023-07-20T14:56:29;3.63;;;1.25;;
18501;SDS011;68437;52.236;5.710;2023-07-20T14:58:56;1.50;;;1.10;;